Time;durP1;ratioP1;P1;durP2;ratioP2;P2;SDS_P1;SDS_P2;PMS_P1;PMS_P2;Temp;Humidity;BMP_temperature;BMP_pressure;BME280_temperature;BME280_humidity;BME280_pressure;Samples;Min_cycle;Max_cycle;Signal;HPM_P1;HPM_P2
2023/06/29 00:01:26;;;;;;;3.90;2.72;;;;;;;;;;5044423;28;20235;-52
2023/06/29 00:03:52;;;;;;;3.97;2.80;;;;;;;;;;5054871;28;20236;-52
2023/06/29 00:06:19;;;;;;;3.55;2.33;;;;;;;;;;5060260;28;20243;-52
2023/06/29 00:08:47;;;;;;;2.70;2.35;;;;;;;;;;5051136;28;20289;-52
2023/06/29 00:11:14;;;;;;;3.47;3.13;;;;;;;;;;5052439;28;20235;-53
2023/06/29 00:13:41;;;;;;;4.40;2.25;;;;;;;;;;5051149;28;20250;-52
2023/06/29 00:16:08;;;;;;;2.70;2.50;;;;;;;;;;5060402;28;20234;-52
2023/06/29 00:18:35;;;;;;;3.95;3.13;;;;;;;;;;5046822;28;20226;-52
2023/06/29 00:21:03;;;;;;;5.28;2.95;;;;;;;;;;5046578;28;20224;-52
2023/06/29 00:23:32;;;;;;;2.97;2.42;;;;;;;;;;5063722;28;20235;-52
2023/06/29 00:25:58;;;;;;;5.05;2.85;;;;;;;;;;5050852;28;20232;-52
2023/06/29 00:28:26;;;;;;;3.30;2.65;;;;;;;;;;5051679;28;20240;-53
2023/06/29 00:30:53;;;;;;;4.38;2.83;;;;;;;;;;5045498;28;20263;-53
2023/06/29 00:33:19;;;;;;;3.28;2.97;;;;;;;;;;5048648;28;20320;-52
2023/06/29 00:35:46;;;;;;;4.60;2.72;;;;;;;;;;5054281;28;20235;-52
2023/06/29 00:38:12;;;;;;;4.45;2.90;;;;;;;;;;5050664;28;20227;-55
2023/06/29 00:40:39;;;;;;;3.30;3.00;;;;;;;;;;5050362;28;20319;-53
2023/06/29 00:43:05;;;;;;;7.20;2.75;;;;;;;;;;5041797;28;20258;-52
2023/06/29 00:45:33;;;;;;;4.28;3.05;;;;;;;;;;5045232;28;20231;-52
2023/06/29 00:47:59;;;;;;;5.45;2.95;;;;;;;;;;5040006;28;20228;-53
2023/06/29 00:50:25;;;;;;;2.78;2.58;;;;;;;;;;5047160;28;20236;-53
2023/06/29 00:52:55;;;;;;;3.58;2.30;;;;;;;;;;5036299;28;20240;-52
2023/06/29 00:55:21;;;;;;;3.70;2.28;;;;;;;;;;5047484;28;20776;-52
2023/06/29 00:57:47;;;;;;;3.03;2.70;;;;;;;;;;5037221;28;20239;-51
2023/06/29 01:00:15;;;;;;;2.90;2.58;;;;;;;;;;5041268;28;20303;-52
2023/06/29 01:02:43;;;;;;;4.53;2.42;;;;;;;;;;5048202;28;20252;-52
2023/06/29 01:05:10;;;;;;;2.90;2.60;;;;;;;;;;5049338;28;20255;-52
2023/06/29 01:07:39;;;;;;;3.30;2.95;;;;;;;;;;5046863;28;20242;-52
2023/06/29 01:10:06;;;;;;;3.92;2.95;;;;;;;;;;5046921;28;20774;-53
2023/06/29 01:12:34;;;;;;;3.38;3.08;;;;;;;;;;5059946;28;20326;-52
2023/06/29 01:15:01;;;;;;;3.85;2.78;;;;;;;;;;5063579;28;21011;-53
2023/06/29 01:17:31;;;;;;;4.70;3.08;;;;;;;;;;5048520;28;20228;-52
2023/06/29 01:20:00;;;;;;;4.57;3.08;;;;;;;;;;5051711;28;20238;-51
2023/06/29 01:22:29;;;;;;;4.40;3.17;;;;;;;;;;5058767;28;20234;-52
2023/06/29 01:24:58;;;;;;;3.75;2.88;;;;;;;;;;5055639;28;20867;-51
2023/06/29 01:27:24;;;;;;;3.15;2.85;;;;;;;;;;5053058;28;20330;-52
2023/06/29 01:29:55;;;;;;;6.03;3.55;;;;;;;;;;5044436;28;20239;-53
2023/06/29 01:32:33;;;;;;;3.67;3.10;;;;;;;;;;5056552;28;20778;-51
2023/06/29 01:35:01;;;;;;;3.55;3.08;;;;;;;;;;5047606;27;20307;-53
2023/06/29 01:37:29;;;;;;;3.22;2.92;;;;;;;;;;5055002;28;20231;-52
2023/06/29 01:39:59;;;;;;;4.30;2.70;;;;;;;;;;5041050;28;20232;-51
2023/06/29 01:42:27;;;;;;;3.33;3.03;;;;;;;;;;5045427;28;20988;-51
2023/06/29 01:44:54;;;;;;;3.55;3.25;;;;;;;;;;5051446;28;20243;-53
2023/06/29 01:47:21;;;;;;;4.32;3.13;;;;;;;;;;5049197;28;20654;-51
2023/06/29 01:49:48;;;;;;;4.03;3.05;;;;;;;;;;5044991;28;20650;-52
2023/06/29 01:52:15;;;;;;;3.10;2.78;;;;;;;;;;5042345;28;20615;-51
2023/06/29 01:54:42;;;;;;;5.30;3.50;;;;;;;;;;5046332;28;20330;-52
2023/06/29 01:57:12;;;;;;;3.35;2.88;;;;;;;;;;5046189;28;20337;-53
2023/06/29 01:59:39;;;;;;;3.10;2.80;;;;;;;;;;5057506;28;20739;-51
2023/06/29 02:02:06;;;;;;;3.20;2.90;;;;;;;;;;5062237;28;20313;-52
2023/06/29 02:04:33;;;;;;;3.03;2.80;;;;;;;;;;5061075;28;21792;-52
2023/06/29 02:07:00;;;;;;;3.13;2.83;;;;;;;;;;5061074;28;20261;-52
2023/06/29 02:09:27;;;;;;;5.30;3.60;;;;;;;;;;5058199;28;20223;-52
2023/06/29 02:11:54;;;;;;;6.15;3.50;;;;;;;;;;5066671;28;20296;-51
2023/06/29 02:14:22;;;;;;;3.25;2.95;;;;;;;;;;5060261;28;20679;-53
2023/06/29 02:16:49;;;;;;;3.20;2.97;;;;;;;;;;5062256;28;20300;-52
2023/06/29 02:19:15;;;;;;;3.15;2.95;;;;;;;;;;5065271;28;20230;-52
2023/06/29 02:21:42;;;;;;;3.22;3.00;;;;;;;;;;5075951;28;20234;-52
2023/06/29 02:24:09;;;;;;;3.33;2.92;;;;;;;;;;5066754;28;20230;-52
2023/06/29 02:26:36;;;;;;;3.65;3.35;;;;;;;;;;5067223;28;20322;-51
2023/06/29 02:29:03;;;;;;;4.03;2.78;;;;;;;;;;5066861;28;20226;-52
2023/06/29 02:31:32;;;;;;;4.22;3.83;;;;;;;;;;5061239;28;20223;-51
2023/06/29 02:33:58;;;;;;;3.58;3.33;;;;;;;;;;5064984;28;20235;-51
2023/06/29 02:36:25;;;;;;;4.63;3.50;;;;;;;;;;5066457;28;20324;-51
2023/06/29 02:38:52;;;;;;;3.60;3.30;;;;;;;;;;5061075;28;20235;-52
2023/06/29 02:41:19;;;;;;;7.65;3.88;;;;;;;;;;5059346;28;20219;-52
2023/06/29 02:43:46;;;;;;;5.78;3.47;;;;;;;;;;5061163;28;20686;-52
2023/06/29 02:46:12;;;;;;;4.03;2.67;;;;;;;;;;5060180;28;20235;-52
2023/06/29 02:48:41;;;;;;;4.18;3.70;;;;;;;;;;5062021;28;20241;-52
2023/06/29 02:51:08;;;;;;;5.07;3.45;;;;;;;;;;5067320;28;20246;-52
2023/06/29 02:53:41;;;;;;;3.90;3.50;;;;;;;;;;5068054;28;20239;-53
2023/06/29 02:56:08;;;;;;;6.90;4.00;;;;;;;;;;5063965;28;20318;-52
2023/06/29 02:58:35;;;;;;;7.03;4.70;;;;;;;;;;5065748;28;20239;-53
2023/06/29 03:01:02;;;;;;;6.95;3.88;;;;;;;;;;5065862;28;20235;-52
2023/06/29 03:03:28;;;;;;;6.43;4.50;;;;;;;;;;5064106;28;20662;-53
2023/06/29 03:05:56;;;;;;;4.45;4.05;;;;;;;;;;5064076;28;20227;-52
2023/06/29 03:08:23;;;;;;;5.20;4.45;;;;;;;;;;5067679;28;20309;-52
2023/06/29 03:10:50;;;;;;;4.90;3.60;;;;;;;;;;5064489;28;20329;-53
2023/06/29 03:13:17;;;;;;;6.40;3.83;;;;;;;;;;5059422;28;20234;-52
2023/06/29 03:15:43;;;;;;;4.57;4.13;;;;;;;;;;5063944;28;20241;-52
2023/06/29 03:18:10;;;;;;;6.03;4.10;;;;;;;;;;5061462;28;20231;-52
2023/06/29 03:20:40;;;;;;;5.30;3.45;;;;;;;;;;5061390;28;20241;-52
2023/06/29 03:23:08;;;;;;;4.85;3.85;;;;;;;;;;5069003;28;20289;-52
2023/06/29 03:25:35;;;;;;;6.55;3.72;;;;;;;;;;5077498;28;20299;-53
2023/06/29 03:28:01;;;;;;;5.13;4.15;;;;;;;;;;5070838;28;20231;-53
2023/06/29 03:30:28;;;;;;;4.72;4.30;;;;;;;;;;5065420;28;20313;-52
2023/06/29 03:32:58;;;;;;;4.75;4.05;;;;;;;;;;5062351;28;20299;-52
2023/06/29 03:35:24;;;;;;;7.18;4.53;;;;;;;;;;5066131;28;20231;-52
2023/06/29 03:37:51;;;;;;;4.50;4.00;;;;;;;;;;5060018;28;20235;-53
2023/06/29 03:40:20;;;;;;;4.75;4.07;;;;;;;;;;5064817;28;20571;-52
2023/06/29 03:42:47;;;;;;;4.53;3.90;;;;;;;;;;5068063;28;20293;-53
2023/06/29 03:45:14;;;;;;;4.85;3.97;;;;;;;;;;5066917;28;20231;-51
2023/06/29 03:47:40;;;;;;;4.38;3.90;;;;;;;;;;5064317;28;20243;-52
2023/06/29 03:50:07;;;;;;;4.57;4.15;;;;;;;;;;5067309;28;20242;-52
2023/06/29 03:52:35;;;;;;;8.35;4.00;;;;;;;;;;5063802;28;20227;-52
2023/06/29 03:55:01;;;;;;;4.00;3.70;;;;;;;;;;5067362;28;20729;-52
2023/06/29 03:57:30;;;;;;;5.75;3.83;;;;;;;;;;5070594;28;20227;-52
2023/06/29 03:59:56;;;;;;;4.15;3.60;;;;;;;;;;5071506;28;20231;-53
2023/06/29 04:02:23;;;;;;;5.53;3.35;;;;;;;;;;5069376;28;20322;-52
2023/06/29 04:04:50;;;;;;;3.65;3.35;;;;;;;;;;5069702;28;20284;-51
2023/06/29 04:07:16;;;;;;;4.07;3.67;;;;;;;;;;5071218;27;20254;-54
2023/06/29 04:09:43;;;;;;;4.05;3.75;;;;;;;;;;5060790;28;20652;-52
2023/06/29 04:12:10;;;;;;;3.72;3.42;;;;;;;;;;5066821;28;20231;-51
2023/06/29 04:14:38;;;;;;;3.60;3.30;;;;;;;;;;5065100;28;20258;-53
2023/06/29 04:17:05;;;;;;;7.40;4.13;;;;;;;;;;5060583;27;20716;-51
2023/06/29 04:19:32;;;;;;;4.03;3.55;;;;;;;;;;5061970;28;20291;-52
2023/06/29 04:21:59;;;;;;;3.22;2.97;;;;;;;;;;5061920;28;20231;-52
2023/06/29 04:24:26;;;;;;;4.68;3.42;;;;;;;;;;5062213;28;20236;-52
2023/06/29 04:26:53;;;;;;;3.20;2.90;;;;;;;;;;5059986;28;20341;-52
2023/06/29 04:29:20;;;;;;;3.38;3.08;;;;;;;;;;5065569;28;20314;-52
2023/06/29 04:31:48;;;;;;;4.57;4.15;;;;;;;;;;5066434;28;20223;-55
2023/06/29 04:34:17;;;;;;;4.90;3.42;;;;;;;;;;5061222;28;20235;-52
2023/06/29 04:36:46;;;;;;;3.95;3.55;;;;;;;;;;5053398;28;20219;-52
2023/06/29 04:39:13;;;;;;;3.60;3.30;;;;;;;;;;5057702;28;20238;-52
2023/06/29 04:41:41;;;;;;;4.95;3.88;;;;;;;;;;5061008;28;20302;-53
2023/06/29 04:44:09;;;;;;;3.97;3.58;;;;;;;;;;5068041;28;20240;-53
2023/06/29 04:46:38;;;;;;;4.93;3.80;;;;;;;;;;5065046;27;22573;-53
2023/06/29 04:49:06;;;;;;;3.67;3.38;;;;;;;;;;5063273;28;20234;-53
2023/06/29 04:51:33;;;;;;;3.33;3.05;;;;;;;;;;5050709;28;20293;-53
2023/06/29 04:54:00;;;;;;;7.28;4.43;;;;;;;;;;5053868;28;20789;-52
2023/06/29 04:56:27;;;;;;;3.85;3.30;;;;;;;;;;5056630;28;20292;-53
2023/06/29 04:58:54;;;;;;;4.93;3.88;;;;;;;;;;5058547;28;20705;-53
2023/06/29 05:01:20;;;;;;;3.95;3.63;;;;;;;;;;5052297;28;20285;-53
2023/06/29 05:03:47;;;;;;;7.13;4.40;;;;;;;;;;5054946;28;20247;-54
2023/06/29 05:06:15;;;;;;;4.82;3.83;;;;;;;;;;5055354;28;20246;-53
2023/06/29 05:08:42;;;;;;;3.67;3.38;;;;;;;;;;5056576;28;20231;-53
2023/06/29 05:11:09;;;;;;;5.05;3.55;;;;;;;;;;5062324;28;20254;-52
2023/06/29 05:13:36;;;;;;;4.45;3.03;;;;;;;;;;5053138;28;20223;-53
2023/06/29 05:16:02;;;;;;;3.60;3.30;;;;;;;;;;5049461;28;20250;-52
2023/06/29 05:18:29;;;;;;;5.60;4.10;;;;;;;;;;5058718;28;20247;-51
2023/06/29 05:20:57;;;;;;;4.93;3.85;;;;;;;;;;5062012;28;20231;-56
2023/06/29 05:23:25;;;;;;;5.68;5.00;;;;;;;;;;5057752;28;20230;-53
2023/06/29 05:25:52;;;;;;;5.43;4.90;;;;;;;;;;5056595;28;20253;-56
2023/06/29 05:28:18;;;;;;;4.82;4.32;;;;;;;;;;5055345;28;20226;-52
2023/06/29 05:30:45;;;;;;;5.68;4.65;;;;;;;;;;5056669;28;20251;-52
2023/06/29 05:33:12;;;;;;;4.82;4.30;;;;;;;;;;5058592;28;20261;-52
2023/06/29 05:35:39;;;;;;;4.47;4.07;;;;;;;;;;5059808;28;20304;-53
2023/06/29 05:38:05;;;;;;;7.07;4.47;;;;;;;;;;5053581;28;20230;-54
2023/06/29 05:40:34;;;;;;;7.57;5.03;;;;;;;;;;5054982;28;20345;-51
2023/06/29 05:43:00;;;;;;;5.18;4.75;;;;;;;;;;5062040;28;20732;-52
2023/06/29 05:45:27;;;;;;;6.32;4.93;;;;;;;;;;5057528;27;20284;-52
2023/06/29 05:47:54;;;;;;;5.13;4.57;;;;;;;;;;5056624;28;20525;-52
2023/06/29 05:50:21;;;;;;;5.40;4.63;;;;;;;;;;5050737;28;20227;-52
2023/06/29 05:52:48;;;;;;;7.75;5.20;;;;;;;;;;5045594;28;20256;-52
2023/06/29 05:55:15;;;;;;;5.20;4.68;;;;;;;;;;5069044;28;20231;-54
2023/06/29 05:57:43;;;;;;;7.07;5.15;;;;;;;;;;5050672;28;20234;-53
2023/06/29 06:00:12;;;;;;;6.18;4.85;;;;;;;;;;5061923;28;20237;-51
2023/06/29 06:02:39;;;;;;;8.98;5.43;;;;;;;;;;5054837;28;20755;-51
2023/06/29 06:05:07;;;;;;;5.05;4.32;;;;;;;;;;5056784;28;20235;-52
2023/06/29 06:07:34;;;;;;;4.57;4.07;;;;;;;;;;5060381;28;20231;-52
2023/06/29 06:10:01;;;;;;;4.13;3.30;;;;;;;;;;5058173;28;20231;-53
2023/06/29 06:12:28;;;;;;;4.07;3.53;;;;;;;;;;5051969;28;20623;-52
2023/06/29 06:14:56;;;;;;;3.55;2.97;;;;;;;;;;5057734;28;20243;-52
2023/06/29 06:17:22;;;;;;;5.00;3.42;;;;;;;;;;5064444;28;20233;-52
2023/06/29 06:19:49;;;;;;;3.17;2.88;;;;;;;;;;5056382;28;20235;-52
2023/06/29 06:22:16;;;;;;;7.50;4.18;;;;;;;;;;5064261;28;20235;-52
2023/06/29 06:24:42;;;;;;;4.47;3.88;;;;;;;;;;5062039;28;20943;-52
2023/06/29 06:27:09;;;;;;;4.85;3.70;;;;;;;;;;5059633;28;20604;-54
2023/06/29 06:29:36;;;;;;;5.85;3.72;;;;;;;;;;5059988;28;20713;-53
2023/06/29 06:32:04;;;;;;;3.67;3.08;;;;;;;;;;5061271;28;20242;-53
2023/06/29 06:34:32;;;;;;;8.05;3.60;;;;;;;;;;5058354;28;20231;-52
2023/06/29 06:36:59;;;;;;;4.57;3.72;;;;;;;;;;5062781;28;20593;-52
2023/06/29 06:39:26;;;;;;;6.18;3.92;;;;;;;;;;5060078;28;20239;-52
2023/06/29 06:41:53;;;;;;;4.60;3.08;;;;;;;;;;5062145;28;20223;-53
2023/06/29 06:44:19;;;;;;;10.02;4.05;;;;;;;;;;5060738;28;20666;-53
2023/06/29 06:46:46;;;;;;;3.47;3.03;;;;;;;;;;5060980;28;20336;-53
2023/06/29 06:49:14;;;;;;;6.25;4.30;;;;;;;;;;5062379;28;20626;-53
2023/06/29 06:51:41;;;;;;;4.00;2.92;;;;;;;;;;5079947;28;20227;-52
2023/06/29 06:54:08;;;;;;;4.35;2.60;;;;;;;;;;5061118;28;20260;-52
2023/06/29 06:56:34;;;;;;;7.43;3.92;;;;;;;;;;5059327;28;21194;-52
2023/06/29 06:59:01;;;;;;;3.53;3.22;;;;;;;;;;5061781;28;20257;-52
2023/06/29 07:01:28;;;;;;;4.35;3.50;;;;;;;;;;5068292;28;20576;-52
2023/06/29 07:03:55;;;;;;;6.85;3.60;;;;;;;;;;5067694;28;20239;-52
2023/06/29 07:06:23;;;;;;;4.43;2.55;;;;;;;;;;5067043;28;20253;-52
2023/06/29 07:08:49;;;;;;;2.55;2.22;;;;;;;;;;5056194;28;20721;-52
2023/06/29 07:11:16;;;;;;;3.53;2.40;;;;;;;;;;5063269;28;20305;-52
2023/06/29 07:13:42;;;;;;;2.53;2.30;;;;;;;;;;5066198;28;20262;-52
2023/06/29 07:16:09;;;;;;;1.90;1.80;;;;;;;;;;5069090;28;20263;-52
2023/06/29 07:18:36;;;;;;;1.90;1.80;;;;;;;;;;5063531;28;20338;-52
2023/06/29 07:21:03;;;;;;;2.83;2.38;;;;;;;;;;5067468;28;20316;-52
2023/06/29 07:23:31;;;;;;;6.68;3.88;;;;;;;;;;5062404;28;20238;-53
2023/06/29 07:25:58;;;;;;;4.22;3.70;;;;;;;;;;5066540;28;20226;-52
2023/06/29 07:28:25;;;;;;;9.00;2.60;;;;;;;;;;5069367;28;20231;-53
2023/06/29 07:30:52;;;;;;;8.02;2.80;;;;;;;;;;5068525;28;20757;-52
2023/06/29 07:33:19;;;;;;;4.43;2.15;;;;;;;;;;5073942;28;20225;-54
2023/06/29 07:35:45;;;;;;;2.67;2.47;;;;;;;;;;5071483;28;20239;-53
2023/06/29 07:38:13;;;;;;;8.02;5.93;;;;;;;;;;5068123;28;20227;-54
2023/06/29 07:40:42;;;;;;;6.72;5.80;;;;;;;;;;5073259;28;20241;-52
2023/06/29 07:43:08;;;;;;;4.28;3.67;;;;;;;;;;5077287;28;20247;-54
2023/06/29 07:45:35;;;;;;;3.28;2.97;;;;;;;;;;5081082;28;20234;-51
2023/06/29 07:48:02;;;;;;;3.50;2.42;;;;;;;;;;5078556;28;20235;-52
2023/06/29 07:50:29;;;;;;;3.60;2.20;;;;;;;;;;5066521;28;20263;-52
2023/06/29 07:52:55;;;;;;;2.65;2.30;;;;;;;;;;5079813;28;20231;-53
2023/06/29 07:55:22;;;;;;;1.95;1.80;;;;;;;;;;5067482;28;20231;-51
2023/06/29 07:57:50;;;;;;;2.75;2.20;;;;;;;;;;5072682;28;20231;-57
2023/06/29 08:00:18;;;;;;;4.28;3.83;;;;;;;;;;5078528;28;20250;-53
2023/06/29 08:02:45;;;;;;;9.05;6.75;;;;;;;;;;5064715;28;20242;-53
2023/06/29 08:05:12;;;;;;;14.80;10.95;;;;;;;;;;5074144;28;20241;-53
2023/06/29 08:07:38;;;;;;;10.30;8.07;;;;;;;;;;5066963;28;20258;-52
2023/06/29 08:10:05;;;;;;;3.95;3.60;;;;;;;;;;5078506;28;20664;-53
2023/06/29 08:12:32;;;;;;;3.40;2.10;;;;;;;;;;5061716;28;20227;-52
2023/06/29 08:15:00;;;;;;;7.90;2.38;;;;;;;;;;5078609;28;20254;-53
2023/06/29 08:17:26;;;;;;;7.07;2.88;;;;;;;;;;5083339;28;20234;-52
2023/06/29 08:19:53;;;;;;;2.30;2.10;;;;;;;;;;5082753;28;20237;-52
2023/06/29 08:22:20;;;;;;;2.58;2.10;;;;;;;;;;5084040;28;20261;-53
2023/06/29 08:24:46;;;;;;;3.72;2.60;;;;;;;;;;5077976;28;20226;-52
2023/06/29 08:27:13;;;;;;;4.00;2.70;;;;;;;;;;5056619;28;20234;-52
2023/06/29 08:29:40;;;;;;;4.97;2.67;;;;;;;;;;5070348;28;20716;-52
2023/06/29 08:32:09;;;;;;;2.80;2.28;;;;;;;;;;5067816;28;20244;-53
2023/06/29 08:34:35;;;;;;;3.83;2.78;;;;;;;;;;5068204;28;20229;-53
2023/06/29 08:37:01;;;;;;;3.58;2.30;;;;;;;;;;5060303;28;20249;-52
2023/06/29 08:39:28;;;;;;;3.33;2.38;;;;;;;;;;5071152;28;20281;-52
2023/06/29 08:41:55;;;;;;;2.83;2.33;;;;;;;;;;5068871;28;20774;-52
2023/06/29 08:44:22;;;;;;;2.00;1.90;;;;;;;;;;5071364;28;20697;-53
2023/06/29 08:46:48;;;;;;;3.65;2.30;;;;;;;;;;5073843;28;21008;-57
2023/06/29 08:49:16;;;;;;;2.40;2.30;;;;;;;;;;5069312;28;20332;-52
2023/06/29 08:51:44;;;;;;;2.63;2.42;;;;;;;;;;5064612;28;20368;-54
2023/06/29 08:54:11;;;;;;;2.53;2.30;;;;;;;;;;5070541;28;20226;-51
2023/06/29 08:56:38;;;;;;;3.35;2.03;;;;;;;;;;5073081;28;20231;-54
2023/06/29 08:59:04;;;;;;;2.85;2.28;;;;;;;;;;5070591;28;20230;-53
2023/06/29 09:01:31;;;;;;;3.10;2.28;;;;;;;;;;5065095;28;20831;-53
2023/06/29 09:03:57;;;;;;;2.15;1.80;;;;;;;;;;5065998;28;20270;-52
2023/06/29 09:06:26;;;;;;;4.10;2.55;;;;;;;;;;5077107;28;20735;-52
2023/06/29 09:08:53;;;;;;;2.90;1.90;;;;;;;;;;5084832;27;20270;-52
2023/06/29 09:11:20;;;;;;;1.98;1.88;;;;;;;;;;5074995;28;20238;-52
2023/06/29 09:13:46;;;;;;;2.80;1.98;;;;;;;;;;5082276;28;20234;-53
2023/06/29 09:16:14;;;;;;;3.33;2.40;;;;;;;;;;5066508;28;20235;-54
2023/06/29 09:18:40;;;;;;;4.35;2.15;;;;;;;;;;5061686;28;20230;-53
2023/06/29 09:21:08;;;;;;;4.40;2.00;;;;;;;;;;5077068;28;20284;-53
2023/06/29 09:23:42;;;;;;;4.15;2.17;;;;;;;;;;5060048;28;20352;-52
2023/06/29 09:26:09;;;;;;;2.85;2.17;;;;;;;;;;5061705;28;20234;-52
2023/06/29 09:28:36;;;;;;;3.13;1.90;;;;;;;;;;5066799;28;20235;-53
2023/06/29 09:31:06;;;;;;;2.08;1.88;;;;;;;;;;5064769;28;20234;-52
2023/06/29 09:33:33;;;;;;;2.30;2.00;;;;;;;;;;5069045;28;20662;-52
2023/06/29 09:36:05;;;;;;;4.72;1.90;;;;;;;;;;5071007;28;20230;-53
2023/06/29 09:38:34;;;;;;;2.17;1.90;;;;;;;;;;5060954;28;20249;-53
2023/06/29 09:41:02;;;;;;;2.92;1.92;;;;;;;;;;5071091;28;20285;-53
2023/06/29 09:43:29;;;;;;;3.55;2.38;;;;;;;;;;5069332;28;20231;-53
2023/06/29 09:46:00;;;;;;;6.78;2.17;;;;;;;;;;5076208;28;20255;-52
2023/06/29 09:48:27;;;;;;;2.67;2.00;;;;;;;;;;5061568;28;20231;-52
2023/06/29 09:50:54;;;;;;;2.78;2.38;;;;;;;;;;5065555;28;20957;-51
2023/06/29 09:53:28;;;;;;;6.57;2.88;;;;;;;;;;5070526;28;20230;-52
2023/06/29 09:55:56;;;;;;;2.72;2.38;;;;;;;;;;5065676;28;20742;-51
2023/06/29 09:58:24;;;;;;;2.50;2.30;;;;;;;;;;5069657;28;20237;-52
2023/06/29 10:00:50;;;;;;;3.38;2.33;;;;;;;;;;5065264;28;20234;-53
2023/06/29 10:03:17;;;;;;;3.20;2.08;;;;;;;;;;5063619;28;20234;-52
2023/06/29 10:05:43;;;;;;;2.47;2.08;;;;;;;;;;5063847;28;20235;-54
2023/06/29 10:08:14;;;;;;;2.92;2.17;;;;;;;;;;5063819;28;20594;-51
2023/06/29 10:10:41;;;;;;;3.03;1.90;;;;;;;;;;5062410;28;20223;-53
2023/06/29 10:13:07;;;;;;;3.10;2.40;;;;;;;;;;5059790;28;20318;-52
2023/06/29 10:15:37;;;;;;;2.47;1.98;;;;;;;;;;5062754;28;20270;-53
2023/06/29 10:18:05;;;;;;;2.75;2.55;;;;;;;;;;5080173;28;20707;-52
2023/06/29 10:20:34;;;;;;;1.58;1.48;;;;;;;;;;5056312;28;20235;-52
2023/06/29 10:23:03;;;;;;;2.28;2.08;;;;;;;;;;5069306;28;20234;-52
2023/06/29 10:25:32;;;;;;;2.33;1.88;;;;;;;;;;5076899;28;20624;-52
2023/06/29 10:27:58;;;;;;;2.83;1.90;;;;;;;;;;5073785;28;20301;-52
2023/06/29 10:30:26;;;;;;;2.45;1.85;;;;;;;;;;5072984;28;20289;-53
2023/06/29 10:32:54;;;;;;;3.45;2.08;;;;;;;;;;5067776;28;20738;-53
2023/06/29 10:35:23;;;;;;;2.45;2.25;;;;;;;;;;5070113;28;20222;-53
2023/06/29 10:37:50;;;;;;;1.88;1.70;;;;;;;;;;5069057;28;20227;-52
2023/06/29 10:40:17;;;;;;;2.42;1.70;;;;;;;;;;5053255;28;20267;-53
2023/06/29 10:42:53;;;;;;;2.20;2.00;;;;;;;;;;5060006;28;20317;-52
2023/06/29 10:45:38;;;;;;;3.00;2.70;;;;;;;;;;5055681;28;20243;-52
2023/06/29 10:48:06;;;;;;;2.75;2.55;;;;;;;;;;5064262;28;20237;-52
2023/06/29 10:50:36;;;;;;;2.13;2.00;;;;;;;;;;5068693;28;20227;-52
2023/06/29 10:53:03;;;;;;;2.90;2.60;;;;;;;;;;5069249;28;20231;-53
2023/06/29 10:55:50;;;;;;;3.38;2.42;;;;;;;;;;5064278;28;20229;-53
2023/06/29 10:58:22;;;;;;;2.45;2.22;;;;;;;;;;5052212;28;20253;-53
2023/06/29 11:00:48;;;;;;;2.15;1.90;;;;;;;;;;5063086;28;20662;-52
2023/06/29 11:03:16;;;;;;;2.28;2.08;;;;;;;;;;5064112;28;20245;-52
2023/06/29 11:05:43;;;;;;;3.05;2.58;;;;;;;;;;5060863;28;20227;-52
2023/06/29 11:08:10;;;;;;;3.05;2.60;;;;;;;;;;5065033;28;20727;-52
2023/06/29 11:10:37;;;;;;;4.03;2.55;;;;;;;;;;5063153;28;20694;-54
2023/06/29 11:13:08;;;;;;;3.72;2.95;;;;;;;;;;5062258;28;20322;-53
2023/06/29 11:15:34;;;;;;;3.38;3.08;;;;;;;;;;5059709;28;20250;-52
2023/06/29 11:18:02;;;;;;;4.47;3.00;;;;;;;;;;5061759;28;20593;-53
2023/06/29 11:20:30;;;;;;;3.47;2.92;;;;;;;;;;5062410;28;20241;-54
2023/06/29 11:22:57;;;;;;;5.47;2.60;;;;;;;;;;5060983;28;20278;-53
2023/06/29 11:25:25;;;;;;;3.55;3.08;;;;;;;;;;5062543;28;20300;-52
2023/06/29 11:27:52;;;;;;;6.80;2.72;;;;;;;;;;5054927;28;20293;-53
2023/06/29 11:30:20;;;;;;;2.95;2.75;;;;;;;;;;5057545;28;20236;-53
2023/06/29 11:32:48;;;;;;;4.40;3.00;;;;;;;;;;5064044;28;20236;-53
2023/06/29 11:35:15;;;;;;;3.45;3.15;;;;;;;;;;5063165;28;20235;-53
2023/06/29 11:37:43;;;;;;;124.05;15.38;;;;;;;;;;5061484;28;20315;-57
